Time;durP1;ratioP1;P1;durP2;ratioP2;P2;SDS_P1;SDS_P2;PMS_P1;PMS_P2;Temp;Humidity;BMP_temperature;BMP_pressure;BME280_temperature;BME280_humidity;BME280_pressure;Samples;Min_cycle;Max_cycle;Signal;HPM_P1;HPM_P2
2023/06/16 00:03:49;;;;;;;;;;;;;;;15.79;100.00;97747.28;18560747;32;20373;-58
2023/06/16 00:13:52;;;;;;;;;;;;;;;15.63;100.00;97754.16;18560361;32;19996;-58
2023/06/16 00:23:56;;;;;;;;;;;;;;;15.51;100.00;97755.44;18560049;32;19989;-58
2023/06/16 00:33:59;;;;;;;;;;;;;;;15.43;100.00;97747.97;18545916;32;19952;-58
2023/06/16 00:44:03;;;;;;;;;;;;;;;15.31;100.00;97744.91;18559445;32;19971;-58
2023/06/16 00:54:07;;;;;;;;;;;;;;;15.10;100.00;97737.06;18568529;32;19956;-57
2023/06/16 01:04:12;;;;;;;;;;;;;;;14.91;100.00;97743.38;18570760;32;19952;-58
2023/06/16 01:14:22;;;;;;;;;;;;;;;14.73;100.00;97738.72;18570086;32;19964;-58
2023/06/16 01:24:27;;;;;;;;;;;;;;;14.55;100.00;97738.44;18569639;32;20246;-58
2023/06/16 01:34:31;;;;;;;;;;;;;;;14.38;100.00;97746.28;18568941;32;20329;-58
2023/06/16 01:44:35;;;;;;;;;;;;;;;14.27;100.00;97753.78;18567757;32;19956;-58
2023/06/16 01:54:38;;;;;;;;;;;;;;;14.16;100.00;97755.00;18567812;32;20353;-58
2023/06/16 02:04:44;;;;;;;;;;;;;;;14.06;100.00;97754.03;18552412;32;20268;-58
2023/06/16 02:14:50;;;;;;;;;;;;;;;13.98;100.00;97756.59;18566646;32;19968;-58
2023/06/16 02:24:56;;;;;;;;;;;;;;;13.88;100.00;97765.66;18565757;32;19976;-58
2023/06/16 02:35:01;;;;;;;;;;;;;;;13.74;100.00;97746.50;18564790;31;19957;-58
2023/06/16 02:45:05;;;;;;;;;;;;;;;13.70;100.00;97756.34;18564456;32;20274;-58
2023/06/16 02:55:08;;;;;;;;;;;;;;;13.70;100.00;97756.34;18563848;32;19948;-58
2023/06/16 03:05:11;;;;;;;;;;;;;;;13.66;100.00;97756.12;18548982;32;20264;-58
2023/06/16 03:15:18;;;;;;;;;;;;;;;13.55;100.00;97755.41;18562227;32;20329;-58
2023/06/16 03:25:22;;;;;;;;;;;;;;;13.39;100.00;97754.75;18562350;32;20245;-58
2023/06/16 03:35:24;;;;;;;;;;;;;;;13.28;100.00;97765.94;18561656;32;19980;-58
2023/06/16 03:45:28;;;;;;;;;;;;;;;13.30;100.00;97769.22;18561171;32;19979;-58
2023/06/16 03:55:31;;;;;;;;;;;;;;;13.26;100.00;97771.69;18560896;32;19956;-58
2023/06/16 04:05:34;;;;;;;;;;;;;;;13.22;100.00;97773.34;18560580;32;20280;-58
2023/06/16 04:15:37;;;;;;;;;;;;;;;13.19;100.00;97774.72;18560445;32;19960;-58
2023/06/16 04:25:40;;;;;;;;;;;;;;;13.08;100.00;97784.03;18566200;31;19953;-58
2023/06/16 04:35:43;;;;;;;;;;;;;;;13.14;100.00;97782.91;18572132;31;19983;-57
2023/06/16 04:45:46;;;;;;;;;;;;;;;13.22;100.00;97789.63;18572026;32;19986;-58
2023/06/16 04:55:50;;;;;;;;;;;;;;;13.47;100.00;97801.41;18557343;32;20242;-58
2023/06/16 05:05:52;;;;;;;;;;;;;;;13.76;100.00;97819.59;18556539;32;19987;-58
2023/06/16 05:15:55;;;;;;;;;;;;;;;14.10;100.00;97808.66;18569926;32;19956;-58
2023/06/16 05:25:57;;;;;;;;;;;;;;;14.43;100.00;97807.97;18569612;32;19956;-58
2023/06/16 05:36:00;;;;;;;;;;;;;;;14.47;100.00;97826.16;18567830;31;20341;-58
2023/06/16 05:46:03;;;;;;;;;;;;;;;14.83;100.00;97822.97;18554543;32;19964;-58
2023/06/16 05:56:06;;;;;;;;;;;;;;;15.31;100.00;97829.37;18567435;32;20000;-58
2023/06/16 06:06:09;;;;;;;;;;;;;;;15.65;100.00;97828.22;18566894;32;19957;-58
2023/06/16 06:16:12;;;;;;;;;;;;;;;16.24;100.00;97840.25;18551804;31;19960;-58
2023/06/16 06:26:15;;;;;;;;;;;;;;;16.94;100.00;97849.22;18565608;32;19975;-58
2023/06/16 06:36:27;;;;;;;;;;;;;;;17.96;100.00;97871.69;18564953;31;19972;-58
2023/06/16 06:46:31;;;;;;;;;;;;;;;19.20;90.73;97882.72;18564422;32;19974;-58
2023/06/16 06:56:33;;;;;;;;;;;;;;;19.71;88.49;97894.00;18564291;32;20514;-58
2023/06/16 07:06:43;;;;;;;;;;;;;;;20.16;82.40;97912.03;18548768;31;19941;-58
2023/06/16 07:16:57;;;;;;;;;;;;;;;20.30;82.26;97903.56;18562830;32;19972;-58
2023/06/16 07:27:02;;;;;;;;;;;;;;;20.84;76.50;97914.03;18562559;32;20295;-59
2023/06/16 07:37:06;;;;;;;;;;;;;;;21.08;77.87;97909.84;18561639;31;20276;-58
2023/06/16 07:47:10;;;;;;;;;;;;;;;21.59;75.48;97915.31;18561288;32;19976;-58
2023/06/16 07:57:14;;;;;;;;;;;;;;;22.23;73.06;97915.97;18564327;32;19992;-59
2023/06/16 08:07:17;;;;;;;;;;;;;;;22.21;67.88;97919.06;18582102;32;20320;-58
2023/06/16 08:17:21;;;;;;;;;;;;;;;22.41;68.59;97905.63;18582566;32;19953;-59
2023/06/16 08:27:25;;;;;;;;;;;;;;;22.97;66.83;97900.31;18567549;32;20277;-59
2023/06/16 08:37:28;;;;;;;;;;;;;;;23.47;62.45;97897.47;18567650;31;19987;-59
2023/06/16 08:47:34;;;;;;;;;;;;;;;23.76;53.45;97899.13;18567979;32;19944;-58
2023/06/16 08:57:41;;;;;;;;;;;;;;;24.06;52.40;97914.53;18566296;31;19952;-58
2023/06/16 09:07:45;;;;;;;;;;;;;;;24.31;49.75;97898.59;18580181;32;20012;-58
2023/06/16 09:17:51;;;;;;;;;;;;;;;24.79;48.47;97890.31;18555378;32;20016;-59
2023/06/16 09:27:56;;;;;;;;;;;;;;;25.15;46.57;97880.06;18555772;32;19957;-58
2023/06/16 09:38:00;;;;;;;;;;;;;;;25.44;44.02;97870.44;18568609;31;19956;-59
2023/06/16 09:48:04;;;;;;;;;;;;;;;25.73;43.72;97870.19;18568278;32;20328;-59
2023/06/16 09:58:08;;;;;;;;;;;;;;;26.06;38.92;97866.09;18553796;32;19985;-58
2023/06/16 10:08:12;;;;;;;;;;;;;;;26.48;39.66;97860.47;18567152;32;19953;-58
2023/06/16 10:18:17;;;;;;;;;;;;;;;26.73;35.03;97868.41;18566569;32;19975;-58
2023/06/16 10:28:26;;;;;;;;;;;;;;;26.95;34.90;97868.75;18565562;32;19987;-58
2023/06/16 10:38:33;;;;;;;;;;;;;;;27.20;33.61;97874.63;18565052;31;20008;-57
2023/06/16 10:48:55;;;;;;;;;;;;;;;27.97;31.13;97868.81;18564191;31;19988;-58
2023/06/16 10:58:59;;;;;;;;;;;;;;;26.97;33.72;97858.87;18563879;32;19965;-58
2023/06/16 11:09:05;;;;;;;;;;;;;;;26.82;34.83;97857.03;18563313;32;19952;-58
2023/06/16 11:19:09;;;;;;;;;;;;;;;27.92;32.49;97856.06;18562863;32;20007;-58
2023/06/16 11:29:14;;;;;;;;;;;;;;;27.83;30.68;97852.81;18548273;32;19948;-58
2023/06/16 11:39:19;;;;;;;;;;;;;;;28.74;31.93;97850.47;18560569;31;19952;-59
2023/06/16 11:49:22;;;;;;;;;;;;;;;29.82;29.27;97838.25;18561405;32;19975;-58
2023/06/16 11:59:30;;;;;;;;;;;;;;;30.14;28.37;97840.34;18546752;32;19952;-58
2023/06/16 12:09:37;;;;;;;;;;;;;;;29.94;30.02;97837.91;18546724;32;20053;-58
2023/06/16 12:19:40;;;;;;;;;;;;;;;30.27;28.06;97833.16;18546366;32;19960;-58
2023/06/16 12:29:45;;;;;;;;;;;;;;;30.96;28.00;97827.50;18545634;32;19968;-58
2023/06/16 12:39:59;;;;;;;;;;;;;;;31.29;29.02;97825.44;18559378;32;20291;-58
2023/06/16 12:50:03;;;;;;;;;;;;;;;29.69;28.54;97804.38;18569328;32;19967;-58
2023/06/16 13:00:07;;;;;;;;;;;;;;;30.64;29.58;97801.25;18571237;32;19957;-59
2023/06/16 13:10:11;;;;;;;;;;;;;;;31.51;29.52;97801.00;18556603;32;19952;-59
2023/06/16 13:20:14;;;;;;;;;;;;;;;32.53;27.65;97811.09;18555620;32;19965;-58
2023/06/16 13:30:17;;;;;;;;;;;;;;;33.13;26.45;97801.72;18569297;31;19967;-59
2023/06/16 13:40:22;;;;;;;;;;;;;;;33.19;27.55;97802.81;18554513;31;19953;-58
2023/06/16 13:50:25;;;;;;;;;;;;;;;32.97;26.48;97789.06;18553923;32;19995;-59
2023/06/16 14:00:29;;;;;;;;;;;;;;;33.12;28.70;97789.69;18567013;32;20317;-59
2023/06/16 14:10:32;;;;;;;;;;;;;;;33.36;26.20;97779.41;18552615;32;19957;-59
2023/06/16 14:20:35;;;;;;;;;;;;;;;34.04;26.81;97763.62;18566276;32;19974;-59
2023/06/16 14:30:45;;;;;;;;;;;;;;;34.30;27.45;97764.00;18552135;32;19960;-58
2023/06/16 14:40:50;;;;;;;;;;;;;;;34.87;25.37;97755.78;18564854;32;19976;-59
2023/06/16 14:50:52;;;;;;;;;;;;;;;35.09;26.37;97750.53;18564624;32;19941;-59
2023/06/16 15:00:55;;;;;;;;;;;;;;;33.24;26.18;97740.75;18563765;32;19987;-59
2023/06/16 15:11:03;;;;;;;;;;;;;;;32.05;28.53;97737.16;18563323;32;20286;-59
2023/06/16 15:21:08;;;;;;;;;;;;;;;30.80;32.23;97722.69;18562488;31;19993;-59
2023/06/16 15:31:11;;;;;;;;;;;;;;;29.82;35.52;97715.63;18562317;32;20337;-58
2023/06/16 15:41:16;;;;;;;;;;;;;;;29.37;36.75;97702.06;18561593;32;19967;-58
2023/06/16 15:51:21;;;;;;;;;;;;;;;29.13;31.31;97695.19;18561305;32;19957;-58
2023/06/16 16:01:23;;;;;;;;;;;;;;;28.59;33.35;97701.31;18560983;32;20004;-58
2023/06/16 16:11:27;;;;;;;;;;;;;;;28.24;35.70;97680.44;18546533;32;19968;-58
2023/06/16 16:21:30;;;;;;;;;;;;;;;28.33;36.96;97674.56;18551885;31;19976;-58
2023/06/16 16:31:33;;;;;;;;;;;;;;;28.26;32.05;97675.31;18573327;32;20377;-58
2023/06/16 16:41:36;;;;;;;;;;;;;;;28.61;36.89;97673.91;18572255;32;20001;-58
2023/06/16 16:51:39;;;;;;;;;;;;;;;29.07;34.60;97678.88;18557947;32;20004;-58
2023/06/16 17:01:44;;;;;;;;;;;;;;;28.20;30.69;97683.22;18571297;32;20012;-58
2023/06/16 17:11:48;;;;;;;;;;;;;;;27.44;31.86;97675.47;18570398;31;20272;-58
2023/06/16 17:21:51;;;;;;;;;;;;;;;27.25;32.90;97674.44;18555702;32;19993;-58
2023/06/16 17:31:54;;;;;;;;;;;;;;;26.83;32.40;97676.37;18553656;32;20234;-58
2023/06/16 17:41:57;;;;;;;;;;;;;;;26.51;35.87;97675.94;18554768;32;20337;-59
2023/06/16 17:52:01;;;;;;;;;;;;;;;26.27;36.70;97672.47;18553961;32;19944;-58
2023/06/16 18:02:05;;;;;;;;;;;;;;;26.29;39.12;97675.66;18567690;32;19979;-59
2023/06/16 18:12:11;;;;;;;;;;;;;;;28.36;39.28;97682.13;18566936;32;19994;-59
2023/06/16 18:22:13;;;;;;;;;;;;;;;29.80;37.01;97684.56;18566840;32;20264;-58
2023/06/16 18:32:16;;;;;;;;;;;;;;;26.54;43.98;97673.22;18565920;32;19960;-59
2023/06/16 18:42:20;;;;;;;;;;;;;;;24.41;47.49;97659.59;18564404;32;19983;-59
2023/06/16 18:52:24;;;;;;;;;;;;;;;23.14;52.04;97672.31;18564550;32;20352;-58
2023/06/16 19:02:27;;;;;;;;;;;;;;;22.32;55.63;97672.34;18563583;31;19965;-58
2023/06/16 19:12:33;;;;;;;;;;;;;;;21.73;61.15;97668.16;18549862;32;19967;-59
2023/06/16 19:22:37;;;;;;;;;;;;;;;21.28;70.41;97657.97;18562754;32;19961;-59
2023/06/16 19:32:43;;;;;;;;;;;;;;;20.83;76.99;97659.59;18562348;32;19945;-58
2023/06/16 19:42:46;;;;;;;;;;;;;;;20.48;80.65;97676.34;18561566;32;19993;-59
2023/06/16 19:52:51;;;;;;;;;;;;;;;20.19;83.00;97686.25;18560719;32;20006;-58
2023/06/16 20:02:55;;;;;;;;;;;;;;;19.91;86.62;97697.72;18561116;32;19961;-58
2023/06/16 20:13:00;;;;;;;;;;;;;;;19.59;90.20;97705.38;18546534;32;19956;-58
2023/06/16 20:23:05;;;;;;;;;;;;;;;19.21;93.42;97725.38;18546600;32;19957;-58
2023/06/16 20:33:10;;;;;;;;;;;;;;;18.82;96.29;97727.13;18560087;32;20016;-58
2023/06/16 20:43:16;;;;;;;;;;;;;;;18.52;97.89;97729.69;18559722;32;20293;-58
2023/06/16 20:53:20;;;;;;;;;;;;;;;18.31;97.55;97726.78;18559345;32;20359;-58
2023/06/16 21:03:24;;;;;;;;;;;;;;;18.07;100.00;97732.69;18559602;32;19976;-58
2023/06/16 21:13:28;;;;;;;;;;;;;;;17.87;100.00;97725.81;18570658;32;19945;-58
2023/06/16 21:23:30;;;;;;;;;;;;;;;17.71;100.00;97723.50;18569941;32;19973;-58
2023/06/16 21:33:33;;;;;;;;;;;;;;;17.53;100.00;97719.91;18569500;32;20257;-59
2023/06/16 21:43:37;;;;;;;;;;;;;;;17.35;100.00;97723.66;18568604;32;20000;-59
2023/06/16 21:53:43;;;;;;;;;;;;;;;17.21;100.00;97726.47;18568350;32;20261;-58
2023/06/16 22:03:45;;;;;;;;;;;;;;;17.03;100.00;97723.63;18567780;32;20034;-59
2023/06/16 22:13:51;;;;;;;;;;;;;;;16.77;100.00;97726.12;18552864;32;19964;-59
2023/06/16 22:23:54;;;;;;;;;;;;;;;16.45;100.00;97727.16;18566002;32;19952;-59
2023/06/16 22:33:57;;;;;;;;;;;;;;;16.22;100.00;97722.44;18565802;32;19989;-59
2023/06/16 22:43:59;;;;;;;;;;;;;;;15.99;100.00;97728.94;18565148;32;19968;-59
2023/06/16 22:54:01;;;;;;;;;;;;;;;15.72;100.00;97730.53;18564946;32;19953;-59
2023/06/16 23:04:05;;;;;;;;;;;;;;;15.49;100.00;97727.69;18549598;32;19967;-59
2023/06/16 23:14:08;;;;;;;;;;;;;;;15.29;100.00;97715.22;18563108;32;20075;-59
2023/06/16 23:24:11;;;;;;;;;;;;;;;15.11;100.00;97706.00;18562762;32;19953;-58
2023/06/16 23:34:14;;;;;;;;;;;;;;;14.96;100.00;97703.56;18562231;32;19963;-59
2023/06/16 23:44:16;;;;;;;;;;;;;;;14.78;100.00;97707.91;18561412;32;19987;-59
2023/06/16 23:54:22;;;;;;;;;;;;;;;14.58;100.00;97697.03;18561389;32;19957;-59
